Aviation Digital Data Service (ADDS)

Output produced by METARs form (1845 UTC 04 September 2015)
found at http://aviationweather.gov/adds/metars/
 
KBGR 041720Z 0418/0518 VRB05KT P6SM SKC